Time;durP1;ratioP1;P1;durP2;ratioP2;P2;SDS_P1;SDS_P2;PMS_P1;PMS_P2;Temp;Humidity;BMP_temperature;BMP_pressure;BME280_temperature;BME280_humidity;BME280_pressure;Samples;Min_cycle;Max_cycle;Signal;HPM_P1;HPM_P2
2021/04/11 00:00:12;;;;;;;5.22;3.30;;;;;;;;;;5007713;28;20053;-75
2021/04/11 00:02:38;;;;;;;4.90;2.63;;;;;;;;;;5006978;28;20375;-75
2021/04/11 00:05:08;;;;;;;4.68;2.97;;;;;;;;;;5003842;28;21126;-75
2021/04/11 00:07:34;;;;;;;8.13;3.30;;;;;;;;;;5001051;28;20027;-75
2021/04/11 00:10:00;;;;;;;7.18;3.28;;;;;;;;;;4999761;28;20520;-77
2021/04/11 00:12:26;;;;;;;6.25;3.63;;;;;;;;;;5004113;28;20137;-77
2021/04/11 00:14:52;;;;;;;7.00;4.40;;;;;;;;;;5007559;28;20059;-77
2021/04/11 00:17:18;;;;;;;6.97;3.70;;;;;;;;;;5012702;28;20057;-75
2021/04/11 00:19:44;;;;;;;5.43;3.55;;;;;;;;;;5003169;28;20037;-75
2021/04/11 00:22:10;;;;;;;6.68;4.00;;;;;;;;;;5012503;28;20459;-75
2021/04/11 00:24:36;;;;;;;5.70;3.10;;;;;;;;;;4998113;28;20503;-75
2021/04/11 00:27:02;;;;;;;5.43;3.38;;;;;;;;;;5012375;28;20030;-75
2021/04/11 00:29:28;;;;;;;5.45;3.50;;;;;;;;;;5004126;28;20080;-76
2021/04/11 00:31:54;;;;;;;5.43;3.75;;;;;;;;;;5004814;28;20034;-75
2021/04/11 00:34:20;;;;;;;6.75;4.38;;;;;;;;;;5023099;28;20053;-75
2021/04/11 00:36:46;;;;;;;7.93;4.15;;;;;;;;;;5005235;28;20061;-75
2021/04/11 00:39:12;;;;;;;6.47;4.20;;;;;;;;;;5015585;28;20033;-75
2021/04/11 00:41:41;;;;;;;5.53;3.75;;;;;;;;;;5010387;28;20027;-76
2021/04/11 00:44:07;;;;;;;5.18;3.28;;;;;;;;;;5014395;28;20075;-75
2021/04/11 00:46:45;;;;;;;7.43;3.75;;;;;;;;;;5006000;28;20041;-75
2021/04/11 00:49:18;;;;;;;4.15;2.85;;;;;;;;;;5006343;28;20450;-75
2021/04/11 00:51:44;;;;;;;5.55;3.15;;;;;;;;;;5004808;28;20029;-75
2021/04/11 00:54:10;;;;;;;5.00;3.08;;;;;;;;;;5000846;28;20448;-75
2021/04/11 00:56:38;;;;;;;4.60;3.28;;;;;;;;;;5003269;28;20073;-76
2021/04/11 00:59:04;;;;;;;8.13;3.90;;;;;;;;;;5010429;28;20027;-75
2021/04/11 01:01:30;;;;;;;7.85;4.07;;;;;;;;;;5003189;28;20122;-75
2021/04/11 01:03:56;;;;;;;7.18;4.00;;;;;;;;;;5007689;28;20026;-77
2021/04/11 01:06:27;;;;;;;6.72;3.60;;;;;;;;;;5028089;28;20033;-77
2021/04/11 01:08:54;;;;;;;5.80;3.00;;;;;;;;;;5010586;28;20030;-75
2021/04/11 01:11:27;;;;;;;6.55;2.42;;;;;;;;;;5003547;28;20534;-75
2021/04/11 01:13:55;;;;;;;8.02;2.40;;;;;;;;;;5021483;28;20053;-75
2021/04/11 01:16:22;;;;;;;3.75;1.85;;;;;;;;;;5001763;28;20110;-75
2021/04/11 01:18:48;;;;;;;4.18;2.10;;;;;;;;;;5023433;28;20122;-75
2021/04/11 01:21:36;;;;;;;6.55;2.67;;;;;;;;;;5019084;28;20419;-75
2021/04/11 01:24:02;;;;;;;4.50;2.53;;;;;;;;;;5011512;28;20040;-75
2021/04/11 01:26:29;;;;;;;4.03;2.88;;;;;;;;;;5003060;28;20018;-75
2021/04/11 01:28:55;;;;;;;4.78;2.90;;;;;;;;;;5007091;28;20029;-75
2021/04/11 01:31:21;;;;;;;6.70;3.00;;;;;;;;;;5017312;28;20116;-78
2021/04/11 01:33:50;;;;;;;4.75;3.13;;;;;;;;;;5010119;28;20064;-76
2021/04/11 01:36:18;;;;;;;4.25;2.70;;;;;;;;;;5013239;28;20105;-76
2021/04/11 01:38:45;;;;;;;6.68;3.65;;;;;;;;;;5017938;28;20361;-76
2021/04/11 01:41:14;;;;;;;7.45;3.30;;;;;;;;;;5012100;28;20034;-76
2021/04/11 01:43:41;;;;;;;7.00;3.42;;;;;;;;;;5008819;28;20037;-76
2021/04/11 01:46:07;;;;;;;5.60;2.83;;;;;;;;;;5005840;28;20036;-76
2021/04/11 01:48:34;;;;;;;5.60;3.05;;;;;;;;;;5009801;28;20030;-76
2021/04/11 01:51:00;;;;;;;4.35;2.80;;;;;;;;;;5015032;28;20029;-75
2021/04/11 01:53:26;;;;;;;5.30;2.45;;;;;;;;;;5008918;28;20030;-76
2021/04/11 01:55:52;;;;;;;4.82;2.42;;;;;;;;;;5018810;28;20037;-76
2021/04/11 01:58:18;;;;;;;7.88;2.45;;;;;;;;;;5012106;28;20052;-76
2021/04/11 02:00:47;;;;;;;5.88;2.50;;;;;;;;;;5000691;28;20310;-76
2021/04/11 02:03:15;;;;;;;6.90;2.33;;;;;;;;;;5004377;28;20022;-76
2021/04/11 02:05:42;;;;;;;4.38;2.05;;;;;;;;;;5003938;28;20553;-76
2021/04/11 02:08:09;;;;;;;5.05;2.70;;;;;;;;;;5010871;28;20022;-75
2021/04/11 02:10:36;;;;;;;7.00;2.38;;;;;;;;;;5014883;28;20034;-76
2021/04/11 02:13:02;;;;;;;5.80;2.53;;;;;;;;;;5008001;28;20033;-76
2021/04/11 02:15:30;;;;;;;5.15;2.53;;;;;;;;;;5003959;28;20026;-76
2021/04/11 02:17:57;;;;;;;8.88;3.10;;;;;;;;;;5015609;28;20045;-76
2021/04/11 02:20:26;;;;;;;6.05;3.05;;;;;;;;;;5003344;28;20055;-76
2021/04/11 02:22:53;;;;;;;5.68;3.40;;;;;;;;;;4999737;28;20464;-76
2021/04/11 02:25:20;;;;;;;8.45;2.95;;;;;;;;;;5006970;28;20476;-75
2021/04/11 02:27:47;;;;;;;6.55;2.78;;;;;;;;;;5011186;28;20030;-75
2021/04/11 02:30:14;;;;;;;3.95;2.13;;;;;;;;;;5009419;28;20034;-76
2021/04/11 02:32:40;;;;;;;4.03;2.22;;;;;;;;;;5015555;28;20033;-76
2021/04/11 02:35:08;;;;;;;6.85;2.47;;;;;;;;;;5007568;28;20026;-76
2021/04/11 02:37:36;;;;;;;6.20;2.30;;;;;;;;;;5005043;28;20471;-76
2021/04/11 02:40:05;;;;;;;4.68;1.88;;;;;;;;;;5011954;28;20025;-75
2021/04/11 02:42:34;;;;;;;6.65;1.92;;;;;;;;;;5016684;28;20109;-76
2021/04/11 02:45:08;;;;;;;3.08;1.92;;;;;;;;;;5031496;28;20026;-76
2021/04/11 02:47:34;;;;;;;4.88;2.08;;;;;;;;;;5021314;28;20032;-75
2021/04/11 02:50:00;;;;;;;9.10;1.70;;;;;;;;;;5038670;28;20052;-76
2021/04/11 02:52:32;;;;;;;3.15;1.63;;;;;;;;;;5021779;28;20065;-75
2021/04/11 02:54:58;;;;;;;7.95;2.00;;;;;;;;;;5026810;28;20030;-76
2021/04/11 02:57:25;;;;;;;3.70;1.83;;;;;;;;;;5026771;28;20037;-76
2021/04/11 02:59:52;;;;;;;3.20;1.90;;;;;;;;;;5023954;28;20033;-75
2021/04/11 03:02:18;;;;;;;4.53;2.00;;;;;;;;;;5029120;28;20010;-76
2021/04/11 03:04:44;;;;;;;4.75;2.05;;;;;;;;;;5037410;28;20030;-76
2021/04/11 03:07:20;;;;;;;3.28;1.70;;;;;;;;;;5013427;28;20030;-76
2021/04/11 03:09:48;;;;;;;4.63;1.60;;;;;;;;;;5013078;28;20034;-76
2021/04/11 03:12:14;;;;;;;4.40;1.55;;;;;;;;;;5018353;28;20034;-76
2021/04/11 03:14:41;;;;;;;3.78;1.40;;;;;;;;;;5007758;28;20040;-76
2021/04/11 03:17:15;;;;;;;2.83;1.40;;;;;;;;;;5005326;28;20049;-77
2021/04/11 03:19:44;;;;;;;4.53;2.42;;;;;;;;;;5013466;28;20137;-76
2021/04/11 03:22:11;;;;;;;3.63;1.70;;;;;;;;;;5005112;28;20045;-76
2021/04/11 03:24:38;;;;;;;6.05;1.60;;;;;;;;;;5014366;28;20025;-75
2021/04/11 03:27:04;;;;;;;6.97;1.50;;;;;;;;;;5022292;28;20056;-75
2021/04/11 03:29:34;;;;;;;3.95;1.75;;;;;;;;;;5004647;28;20582;-75
2021/04/11 03:32:16;;;;;;;3.92;1.25;;;;;;;;;;5004704;28;20038;-76
2021/04/11 03:34:42;;;;;;;7.18;1.80;;;;;;;;;;5016124;28;20033;-75
2021/04/11 03:37:10;;;;;;;3.90;1.45;;;;;;;;;;5004750;28;20103;-76
2021/04/11 03:39:36;;;;;;;3.03;0.80;;;;;;;;;;5013785;28;20366;-75
2021/04/11 03:42:07;;;;;;;5.80;0.95;;;;;;;;;;5008354;28;20062;-76
2021/04/11 03:44:33;;;;;;;5.85;1.20;;;;;;;;;;5023812;28;20025;-76
2021/04/11 03:47:02;;;;;;;5.13;1.30;;;;;;;;;;5011315;28;20030;-76
2021/04/11 03:49:31;;;;;;;5.60;1.10;;;;;;;;;;5020223;28;20025;-75
2021/04/11 03:51:59;;;;;;;7.18;1.23;;;;;;;;;;5002732;28;20409;-75
2021/04/11 03:54:28;;;;;;;2.20;1.13;;;;;;;;;;5000697;28;20030;-76
2021/04/11 03:57:07;;;;;;;8.47;1.10;;;;;;;;;;5005790;28;20356;-76
2021/04/11 03:59:34;;;;;;;1.95;0.65;;;;;;;;;;5001410;28;20289;-75
2021/04/11 04:02:01;;;;;;;5.10;0.70;;;;;;;;;;5009544;28;20065;-76
2021/04/11 04:04:27;;;;;;;3.45;1.05;;;;;;;;;;5007739;28;20117;-75
2021/04/11 04:07:10;;;;;;;3.10;0.80;;;;;;;;;;5009597;28;20033;-76
2021/04/11 04:09:37;;;;;;;5.22;0.90;;;;;;;;;;5023230;28;20475;-76
2021/04/11 04:12:06;;;;;;;3.45;0.80;;;;;;;;;;5027301;28;20041;-75
2021/04/11 04:14:32;;;;;;;2.08;0.57;;;;;;;;;;5012993;28;20109;-76
2021/04/11 04:17:01;;;;;;;5.57;1.00;;;;;;;;;;5004039;28;20474;-75
2021/04/11 04:19:37;;;;;;;8.43;0.93;;;;;;;;;;5004086;28;20427;-75
2021/04/11 04:22:13;;;;;;;2.33;0.85;;;;;;;;;;5008328;28;20052;-76
2021/04/11 04:24:48;;;;;;;3.95;0.80;;;;;;;;;;4998178;28;20021;-76
2021/04/11 04:27:21;;;;;;;4.28;0.68;;;;;;;;;;5005460;28;20511;-76
2021/04/11 04:29:50;;;;;;;4.00;0.90;;;;;;;;;;5007041;28;20030;-76
2021/04/11 04:32:34;;;;;;;4.63;1.05;;;;;;;;;;5017970;28;20041;-76
2021/04/11 04:35:16;;;;;;;2.40;0.82;;;;;;;;;;5008127;28;20045;-76
2021/04/11 04:37:49;;;;;;;3.55;1.35;;;;;;;;;;5018850;28;20076;-75
2021/04/11 04:40:33;;;;;;;3.42;0.88;;;;;;;;;;5010951;28;20089;-75
2021/04/11 04:43:01;;;;;;;6.05;1.40;;;;;;;;;;5009984;28;20258;-76
2021/04/11 04:45:44;;;;;;;2.67;1.08;;;;;;;;;;5004863;28;20391;-75
2021/04/11 04:48:20;;;;;;;3.72;0.90;;;;;;;;;;5016460;28;20034;-75
2021/04/11 04:50:46;;;;;;;4.97;0.95;;;;;;;;;;5005556;28;20038;-75
2021/04/11 04:53:21;;;;;;;2.42;1.00;;;;;;;;;;5020590;28;20030;-76
2021/04/11 04:55:52;;;;;;;2.38;0.63;;;;;;;;;;5010314;28;20034;-75
2021/04/11 04:58:25;;;;;;;1.98;1.13;;;;;;;;;;5011911;28;20026;-76
2021/04/11 05:00:53;;;;;;;4.95;0.95;;;;;;;;;;5015155;28;20387;-76
2021/04/11 05:03:25;;;;;;;3.65;0.65;;;;;;;;;;5023206;28;20025;-75
2021/04/11 05:05:57;;;;;;;5.30;0.82;;;;;;;;;;5011603;28;20020;-76
2021/04/11 05:08:41;;;;;;;5.47;0.90;;;;;;;;;;5017669;28;20032;-76
2021/04/11 05:11:15;;;;;;;5.05;0.65;;;;;;;;;;5016541;28;20475;-76
2021/04/11 05:13:46;;;;;;;3.22;1.02;;;;;;;;;;5006185;28;20025;-76
2021/04/11 05:16:16;;;;;;;2.80;0.60;;;;;;;;;;5017665;28;20019;-75
2021/04/11 05:18:47;;;;;;;7.97;0.70;;;;;;;;;;5022952;28;20488;-75
2021/04/11 05:21:16;;;;;;;4.22;0.52;;;;;;;;;;5007547;28;20487;-75
2021/04/11 05:23:48;;;;;;;3.78;0.50;;;;;;;;;;4998667;28;20030;-75
2021/04/11 05:26:14;;;;;;;2.25;0.73;;;;;;;;;;5008849;28;20480;-75
2021/04/11 05:29:03;;;;;;;4.72;0.60;;;;;;;;;;5017433;28;20109;-75
2021/04/11 05:31:30;;;;;;;6.63;2.55;;;;;;;;;;5004616;28;20443;-75
2021/04/11 05:33:57;;;;;;;2.92;0.70;;;;;;;;;;5013321;28;20112;-76
2021/04/11 05:36:26;;;;;;;2.03;0.70;;;;;;;;;;5017517;28;20029;-75
2021/04/11 05:39:11;;;;;;;2.65;1.35;;;;;;;;;;5010326;28;20419;-75
2021/04/11 05:41:41;;;;;;;4.05;0.47;;;;;;;;;;5024877;28;20025;-76
2021/04/11 05:44:14;;;;;;;1.20;0.50;;;;;;;;;;5012830;28;20101;-76
2021/04/11 05:46:43;;;;;;;3.80;0.80;;;;;;;;;;5007730;28;20054;-76
2021/04/11 05:49:21;;;;;;;4.65;0.70;;;;;;;;;;5017200;28;20428;-75
2021/04/11 05:51:59;;;;;;;3.30;0.65;;;;;;;;;;5004673;28;20065;-75
2021/04/11 05:54:54;;;;;;;5.28;0.60;;;;;;;;;;5015076;28;20394;-75
2021/04/11 05:57:26;;;;;;;2.35;0.50;;;;;;;;;;5007069;28;20041;-76
2021/04/11 06:00:12;;;;;;;1.58;0.65;;;;;;;;;;5015759;28;20029;-75
2021/04/11 06:02:40;;;;;;;2.33;0.60;;;;;;;;;;5006137;28;20503;-76
2021/04/11 06:05:24;;;;;;;3.80;0.88;;;;;;;;;;5010677;28;20030;-75
2021/04/11 06:07:55;;;;;;;3.08;1.13;;;;;;;;;;4998733;28;20038;-76
2021/04/11 06:10:30;;;;;;;5.40;0.68;;;;;;;;;;5022064;28;20076;-75
2021/04/11 06:13:00;;;;;;;6.28;1.98;;;;;;;;;;5010371;28;20532;-77
2021/04/11 06:15:31;;;;;;;5.05;0.75;;;;;;;;;;5010746;28;20035;-75
2021/04/11 06:17:57;;;;;;;5.38;0.77;;;;;;;;;;5022349;28;20474;-74
2021/04/11 06:20:24;;;;;;;2.70;0.68;;;;;;;;;;5015887;28;20465;-75
2021/04/11 06:23:04;;;;;;;3.38;0.70;;;;;;;;;;5013417;28;20056;-75
2021/04/11 06:25:46;;;;;;;2.53;0.63;;;;;;;;;;5002693;28;20868;-74
2021/04/11 06:28:30;;;;;;;5.68;0.75;;;;;;;;;;5013704;28;20488;-75
2021/04/11 06:31:03;;;;;;;5.22;0.85;;;;;;;;;;5009226;28;20045;-76
2021/04/11 06:33:31;;;;;;;3.92;0.95;;;;;;;;;;5007403;28;20014;-76
2021/04/11 06:36:00;;;;;;;6.40;1.27;;;;;;;;;;4992664;28;20041;-75
2021/04/11 06:38:31;;;;;;;8.82;1.15;;;;;;;;;;4994846;28;20495;-75
2021/04/11 06:41:07;;;;;;;7.15;0.93;;;;;;;;;;4995162;28;20050;-75
2021/04/11 06:43:52;;;;;;;4.88;0.98;;;;;;;;;;4994645;28;20026;-75
2021/04/11 06:46:24;;;;;;;4.63;0.77;;;;;;;;;;4993844;28;20030;-74
2021/04/11 06:49:01;;;;;;;5.53;0.90;;;;;;;;;;4994328;28;20030;-75
2021/04/11 06:51:40;;;;;;;4.78;1.10;;;;;;;;;;4997330;28;20423;-76
2021/04/11 06:54:21;;;;;;;5.20;1.80;;;;;;;;;;4994663;28;20523;-75
2021/04/11 06:57:05;;;;;;;4.97;0.60;;;;;;;;;;4996273;28;20040;-75
2021/04/11 06:59:43;;;;;;;3.17;0.45;;;;;;;;;;5007435;28;20157;-75
2021/04/11 07:02:28;;;;;;;4.90;0.70;;;;;;;;;;4997240;28;20050;-75
2021/04/11 07:05:09;;;;;;;4.78;1.50;;;;;;;;;;4994170;28;20068;-77
2021/04/11 07:07:47;;;;;;;5.50;0.70;;;;;;;;;;4999128;28;20025;-75
2021/04/11 07:10:19;;;;;;;6.30;1.17;;;;;;;;;;4994279;28;20061;-75
2021/04/11 07:12:57;;;;;;;5.82;0.60;;;;;;;;;;4996238;28;20542;-75
2021/04/11 07:15:29;;;;;;;4.30;0.90;;;;;;;;;;5013079;28;20106;-76
2021/04/11 07:18:09;;;;;;;4.28;0.70;;;;;;;;;;5011442;28;20496;-76
2021/04/11 07:20:35;;;;;;;5.38;0.73;;;;;;;;;;5001192;28;20031;-76
2021/04/11 07:23:20;;;;;;;7.80;0.73;;;;;;;;;;4992087;28;20034;-76
2021/04/11 07:25:46;;;;;;;3.67;0.55;;;;;;;;;;4996605;28;20365;-75
2021/04/11 07:28:20;;;;;;;4.72;0.82;;;;;;;;;;4994540;28;20484;-75
2021/04/11 07:30:58;;;;;;;4.53;0.60;;;;;;;;;;4993642;28;20129;-75
2021/04/11 07:33:36;;;;;;;4.10;0.90;;;;;;;;;;4999566;28;20025;-75
2021/04/11 07:36:17;;;;;;;2.55;0.40;;;;;;;;;;4998337;28;20026;-75
2021/04/11 07:38:59;;;;;;;4.80;0.50;;;;;;;;;;4992392;28;20029;-76
2021/04/11 07:41:24;;;;;;;4.05;0.80;;;;;;;;;;5004190;28;20484;-76
2021/04/11 07:43:53;;;;;;;3.75;1.02;;;;;;;;;;4997743;28;20030;-75
2021/04/11 07:46:38;;;;;;;7.25;0.70;;;;;;;;;;5004102;28;20022;-77
2021/04/11 07:49:23;;;;;;;2.25;0.35;;;;;;;;;;4997907;28;20403;-76
2021/04/11 07:51:55;;;;;;;3.30;1.13;;;;;;;;;;5003832;28;20105;-76
2021/04/11 07:54:21;;;;;;;3.63;0.60;;;;;;;;;;4995228;28;20037;-75
2021/04/11 07:56:54;;;;;;;3.85;0.80;;;;;;;;;;4997920;28;20030;-75
2021/04/11 07:59:39;;;;;;;4.63;0.45;;;;;;;;;;5005736;28;20026;-73
2021/04/11 08:02:17;;;;;;;3.78;0.50;;;;;;;;;;4995179;28;20411;-73
2021/04/11 08:05:00;;;;;;;5.88;0.60;;;;;;;;;;4991726;28;20452;-73
2021/04/11 08:07:35;;;;;;;8.80;0.60;;;;;;;;;;4992569;28;20552;-73
2021/04/11 08:10:20;;;;;;;6.22;0.60;;;;;;;;;;5001276;28;20034;-74
2021/04/11 08:12:57;;;;;;;4.90;0.65;;;;;;;;;;4997319;28;20049;-73
2021/04/11 08:15:26;;;;;;;3.20;0.50;;;;;;;;;;4991137;28;20049;-74
2021/04/11 08:18:04;;;;;;;5.50;0.50;;;;;;;;;;4994405;28;20923;-74
2021/04/11 08:20:49;;;;;;;3.60;0.30;;;;;;;;;;4989281;28;20444;-73
2021/04/11 08:23:30;;;;;;;3.00;0.50;;;;;;;;;;4988222;28;20476;-74
2021/04/11 08:26:14;;;;;;;4.63;0.50;;;;;;;;;;4993089;28;20147;-74
2021/04/11 08:28:59;;;;;;;4.43;0.52;;;;;;;;;;4991097;28;20031;-74
2021/04/11 08:31:31;;;;;;;2.63;0.30;;;;;;;;;;4991809;28;20572;-74
2021/04/11 08:34:00;;;;;;;2.08;0.40;;;;;;;;;;5005054;28;20062;-74
2021/04/11 08:36:49;;;;;;;2.03;0.60;;;;;;;;;;4986012;28;20022;-74
2021/04/11 08:39:26;;;;;;;1.83;0.50;;;;;;;;;;4992248;28;20369;-74
2021/04/11 08:41:55;;;;;;;4.18;0.45;;;;;;;;;;4993966;28;20030;-74
2021/04/11 08:44:21;;;;;;;3.55;0.45;;;;;;;;;;4989459;28;20056;-74
2021/04/11 08:46:47;;;;;;;3.50;0.70;;;;;;;;;;4990315;28;20081;-73
2021/04/11 08:49:23;;;;;;;4.75;0.60;;;;;;;;;;4989516;28;20022;-73
2021/04/11 08:51:49;;;;;;;3.55;0.30;;;;;;;;;;5010872;28;20136;-73
2021/04/11 08:54:26;;;;;;;3.95;0.85;;;;;;;;;;4994897;28;20109;-73
2021/04/11 08:56:52;;;;;;;5.45;0.50;;;;;;;;;;4990260;28;20073;-73
2021/04/11 08:59:34;;;;;;;5.35;0.70;;;;;;;;;;4993703;28;20096;-73
2021/04/11 09:02:17;;;;;;;7.65;1.13;;;;;;;;;;4997033;28;20428;-73
2021/04/11 09:04:49;;;;;;;5.30;0.60;;;;;;;;;;4996768;28;20112;-73
2021/04/11 09:07:23;;;;;;;2.10;0.82;;;;;;;;;;4994564;28;20014;-73
2021/04/11 09:09:59;;;;;;;2.35;0.40;;;;;;;;;;5002069;28;20030;-74
2021/04/11 09:12:29;;;;;;;2.42;0.40;;;;;;;;;;4994554;28;20022;-73
2021/04/11 09:15:14;;;;;;;2.50;0.40;;;;;;;;;;4991073;28;20030;-73
2021/04/11 09:17:39;;;;;;;4.07;0.68;;;;;;;;;;4994775;28;20064;-73
2021/04/11 09:20:11;;;;;;;6.40;0.60;;;;;;;;;;4996968;28;20038;-73
2021/04/11 09:22:44;;;;;;;3.83;0.68;;;;;;;;;;4999658;28;20027;-74
2021/04/11 09:25:10;;;;;;;3.25;0.40;;;;;;;;;;4996579;28;20505;-73
2021/04/11 09:27:48;;;;;;;7.75;0.73;;;;;;;;;;5003190;28;20022;-73
2021/04/11 09:30:27;;;;;;;2.58;0.30;;;;;;;;;;4992359;28;20034;-73
2021/04/11 09:33:05;;;;;;;3.38;0.30;;;;;;;;;;4991131;28;20112;-73
2021/04/11 09:35:36;;;;;;;1.80;0.43;;;;;;;;;;4996692;28;20030;-73
2021/04/11 09:38:02;;;;;;;2.53;0.60;;;;;;;;;;4998066;28;20022;-73
2021/04/11 09:40:47;;;;;;;4.63;0.98;;;;;;;;;;5003218;28;20072;-74
2021/04/11 09:43:25;;;;;;;5.80;0.60;;;;;;;;;;4992708;28;20440;-73
2021/04/11 09:46:09;;;;;;;3.20;0.80;;;;;;;;;;5004434;28;20041;-73
2021/04/11 09:48:38;;;;;;;2.90;1.15;;;;;;;;;;4994832;28;20060;-73
2021/04/11 09:51:10;;;;;;;6.72;0.90;;;;;;;;;;4991709;28;20030;-73
2021/04/11 09:53:51;;;;;;;2.92;0.30;;;;;;;;;;4991191;28;20106;-74
2021/04/11 09:56:29;;;;;;;2.97;0.60;;;;;;;;;;4992405;28;20035;-73
2021/04/11 09:59:18;;;;;;;6.78;0.82;;;;;;;;;;4992967;28;20056;-73
2021/04/11 10:01:44;;;;;;;5.65;0.60;;;;;;;;;;4994710;28;20034;-74
2021/04/11 10:04:26;;;;;;;4.05;0.60;;;;;;;;;;4998927;28;20068;-73
2021/04/11 10:07:10;;;;;;;2.15;0.60;;;;;;;;;;4998731;28;20015;-73
2021/04/11 10:09:48;;;;;;;2.38;0.68;;;;;;;;;;4995615;28;20026;-73
2021/04/11 10:12:33;;;;;;;2.75;0.57;;;;;;;;;;4998867;28;20026;-73
2021/04/11 10:15:04;;;;;;;1.17;0.40;;;;;;;;;;4993933;28;20014;-73
2021/04/11 10:17:37;;;;;;;3.65;0.68;;;;;;;;;;4992540;28;20049;-73
2021/04/11 10:20:12;;;;;;;4.25;0.40;;;;;;;;;;4995947;28;20034;-73
2021/04/11 10:22:42;;;;;;;3.58;0.57;;;;;;;;;;4995609;28;20022;-73
2021/04/11 10:25:11;;;;;;;1.17;0.35;;;;;;;;;;4997819;28;20097;-73
2021/04/11 10:27:37;;;;;;;1.90;0.40;;;;;;;;;;5011038;28;20034;-74
2021/04/11 10:30:05;;;;;;;1.35;0.40;;;;;;;;;;5014716;28;20026;-73
2021/04/11 10:32:31;;;;;;;3.70;0.35;;;;;;;;;;5008750;28;20058;-74
2021/04/11 10:35:16;;;;;;;1.52;0.60;;;;;;;;;;4991906;28;20061;-73
2021/04/11 10:37:45;;;;;;;2.53;0.95;;;;;;;;;;5001733;28;20037;-74
2021/04/11 10:40:24;;;;;;;1.27;0.30;;;;;;;;;;5002991;28;20033;-73
2021/04/11 10:42:59;;;;;;;2.50;0.68;;;;;;;;;;4989205;28;20030;-73
2021/04/11 10:45:25;;;;;;;2.70;0.70;;;;;;;;;;4989848;28;20165;-73
2021/04/11 10:48:00;;;;;;;3.85;0.60;;;;;;;;;;4994446;28;20109;-74
2021/04/11 10:50:32;;;;;;;3.65;0.43;;;;;;;;;;4989315;28;20042;-73
2021/04/11 10:53:17;;;;;;;3.97;0.50;;;;;;;;;;4989781;28;20476;-74
2021/04/11 10:55:43;;;;;;;3.60;0.80;;;;;;;;;;4992021;28;20689;-74
2021/04/11 10:58:16;;;;;;;2.03;0.40;;;;;;;;;;5003884;28;20026;-73
2021/04/11 11:00:45;;;;;;;3.58;0.57;;;;;;;;;;4998635;28;20141;-74
2021/04/11 11:03:30;;;;;;;3.05;0.57;;;;;;;;;;4993388;28;20133;-73
2021/04/11 11:06:14;;;;;;;1.83;0.40;;;;;;;;;;4997362;28;20026;-76
2021/04/11 11:08:46;;;;;;;2.10;0.50;;;;;;;;;;4998241;28;20387;-74
2021/04/11 11:11:32;;;;;;;1.90;0.50;;;;;;;;;;5000427;28;20040;-75
2021/04/11 11:14:21;;;;;;;2.92;0.50;;;;;;;;;;4992380;28;20090;-75
2021/04/11 11:16:59;;;;;;;4.93;0.73;;;;;;;;;;4998267;28;20117;-73
2021/04/11 11:19:32;;;;;;;4.88;0.50;;;;;;;;;;5005276;28;20049;-74
2021/04/11 11:22:03;;;;;;;1.52;0.40;;;;;;;;;;4991696;28;20399;-75
2021/04/11 11:24:38;;;;;;;1.42;0.40;;;;;;;;;;4993721;28;20026;-74
2021/04/11 11:27:16;;;;;;;3.90;0.80;;;;;;;;;;4992961;28;20037;-78
2021/04/11 11:29:45;;;;;;;4.10;0.40;;;;;;;;;;4993995;28;20530;-77
2021/04/11 11:32:17;;;;;;;5.10;1.10;;;;;;;;;;4993963;28;20110;-77
2021/04/11 11:35:06;;;;;;;3.45;0.52;;;;;;;;;;4994887;28;20060;-75
2021/04/11 11:37:52;;;;;;;2.30;0.80;;;;;;;;;;5000618;28;20559;-74
2021/04/11 11:40:20;;;;;;;3.15;0.50;;;;;;;;;;4992840;28;20362;-74
2021/04/11 11:42:59;;;;;;;5.43;0.82;;;;;;;;;;4995366;28;20399;-74
2021/04/11 11:45:39;;;;;;;4.80;0.35;;;;;;;;;;4989205;28;20027;-74
2021/04/11 11:48:14;;;;;;;4.70;0.65;;;;;;;;;;4990753;28;20112;-74
2021/04/11 11:50:59;;;;;;;3.25;0.40;;;;;;;;;;4994949;28;20038;-74
2021/04/11 11:53:30;;;;;;;6.05;1.02;;;;;;;;;;4990156;28;20037;-74
2021/04/11 11:56:16;;;;;;;2.92;0.20;;;;;;;;;;4992052;28;20045;-74
2021/04/11 11:58:51;;;;;;;7.63;1.10;;;;;;;;;;4988539;28;20041;-74
2021/04/11 12:01:20;;;;;;;6.55;0.60;;;;;;;;;;4992019;28;20029;-74
2021/04/11 12:03:47;;;;;;;3.33;0.30;;;;;;;;;;4991090;28;20030;-74
2021/04/11 12:06:25;;;;;;;1.45;0.30;;;;;;;;;;4994653;28;20068;-74
2021/04/11 12:09:11;;;;;;;6.45;0.95;;;;;;;;;;4996974;28;20100;-75
2021/04/11 12:11:40;;;;;;;3.65;0.40;;;;;;;;;;4995385;28;20057;-75
2021/04/11 12:14:06;;;;;;;1.38;0.45;;;;;;;;;;4996975;28;20034;-75
2021/04/11 12:16:35;;;;;;;1.92;0.40;;;;;;;;;;5004077;28;20095;-75
2021/04/11 12:19:16;;;;;;;1.65;0.55;;;;;;;;;;4997773;28;20480;-75
2021/04/11 12:22:05;;;;;;;3.50;0.47;;;;;;;;;;4999763;28;20058;-74
2021/04/11 12:24:48;;;;;;;2.92;0.40;;;;;;;;;;4999728;28;20100;-74
2021/04/11 12:27:16;;;;;;;3.55;0.35;;;;;;;;;;5004327;28;20029;-74
2021/04/11 12:29:49;;;;;;;1.75;0.30;;;;;;;;;;5002351;28;20034;-75
2021/04/11 12:32:21;;;;;;;3.22;0.30;;;;;;;;;;4991964;28;20029;-75
2021/04/11 12:34:58;;;;;;;3.75;0.40;;;;;;;;;;4995287;28;20029;-75
2021/04/11 12:37:43;;;;;;;2.92;0.20;;;;;;;;;;4996051;28;20030;-74
2021/04/11 12:40:19;;;;;;;1.92;0.40;;;;;;;;;;5003199;28;20026;-74
2021/04/11 12:42:48;;;;;;;3.58;0.35;;;;;;;;;;4987693;28;20109;-75
2021/04/11 12:45:18;;;;;;;7.45;0.63;;;;;;;;;;4997539;28;20058;-74
2021/04/11 12:48:05;;;;;;;3.15;0.50;;;;;;;;;;4993206;28;20034;-73
2021/04/11 12:50:38;;;;;;;3.75;0.47;;;;;;;;;;4996926;28;20527;-74
2021/04/11 12:53:22;;;;;;;1.67;0.40;;;;;;;;;;5002023;28;20057;-73
2021/04/11 12:55:48;;;;;;;1.58;0.30;;;;;;;;;;4995243;28;20028;-74
2021/04/11 12:58:35;;;;;;;3.35;0.50;;;;;;;;;;4990508;28;20018;-74
2021/04/11 13:01:09;;;;;;;6.15;0.50;;;;;;;;;;4999720;28;20030;-74
2021/04/11 13:03:38;;;;;;;1.83;0.30;;;;;;;;;;4995575;28;20436;-74
2021/04/11 13:06:13;;;;;;;2.30;0.20;;;;;;;;;;4991026;28;20109;-74
2021/04/11 13:08:55;;;;;;;3.22;0.68;;;;;;;;;;5000661;28;20030;-74
2021/04/11 13:11:24;;;;;;;1.42;0.30;;;;;;;;;;4995655;28;20030;-74
2021/04/11 13:13:59;;;;;;;2.83;0.50;;;;;;;;;;5007691;28;20415;-73
2021/04/11 13:16:34;;;;;;;4.90;0.50;;;;;;;;;;4993139;28;20026;-74
2021/04/11 13:19:03;;;;;;;2.17;0.30;;;;;;;;;;4992662;28;20743;-74
2021/04/11 13:21:32;;;;;;;3.67;0.25;;;;;;;;;;4997830;28;20480;-74
2021/04/11 13:24:11;;;;;;;2.58;0.50;;;;;;;;;;5002053;28;20022;-76
2021/04/11 13:26:52;;;;;;;3.28;0.32;;;;;;;;;;5001254;28;20026;-73
2021/04/11 13:29:22;;;;;;;3.95;0.43;;;;;;;;;;5005548;28;20041;-73
2021/04/11 13:31:50;;;;;;;3.33;0.68;;;;;;;;;;4998162;28;20050;-74
2021/04/11 13:34:21;;;;;;;4.65;0.47;;;;;;;;;;5000560;28;20034;-74
2021/04/11 13:36:48;;;;;;;2.10;0.25;;;;;;;;;;5002106;28;20518;-73
2021/04/11 13:39:32;;;;;;;2.53;0.47;;;;;;;;;;4996069;28;20030;-76
2021/04/11 13:42:17;;;;;;;1.85;0.20;;;;;;;;;;5020621;28;20022;-75
2021/04/11 13:44:43;;;;;;;5.00;0.40;;;;;;;;;;5011109;28;20026;-74
2021/04/11 13:47:21;;;;;;;5.78;0.55;;;;;;;;;;5000815;28;20081;-74
2021/04/11 13:49:55;;;;;;;3.28;0.55;;;;;;;;;;4997258;28;20432;-74
2021/04/11 13:52:21;;;;;;;3.03;0.40;;;;;;;;;;5000137;28;20054;-73
2021/04/11 13:54:59;;;;;;;2.70;0.30;;;;;;;;;;5002588;28;20029;-74
2021/04/11 13:57:25;;;;;;;2.40;0.30;;;;;;;;;;5007752;28;20022;-73
2021/04/11 14:00:12;;;;;;;1.40;0.30;;;;;;;;;;5000962;28;20397;-74
2021/04/11 14:02:48;;;;;;;5.05;0.82;;;;;;;;;;4985052;28;20424;-74
2021/04/11 14:05:14;;;;;;;2.20;0.30;;;;;;;;;;4997118;28;20018;-72
2021/04/11 14:07:40;;;;;;;2.28;0.30;;;;;;;;;;4996071;28;20022;-74
2021/04/11 14:10:11;;;;;;;3.60;0.43;;;;;;;;;;4997506;28;20092;-73
2021/04/11 14:12:46;;;;;;;1.30;0.32;;;;;;;;;;4993956;28;20127;-73
2021/04/11 14:15:23;;;;;;;1.92;0.40;;;;;;;;;;4994797;28;20034;-74
2021/04/11 14:17:49;;;;;;;2.00;0.38;;;;;;;;;;4992898;28;20081;-74
2021/04/11 14:20:21;;;;;;;4.72;0.75;;;;;;;;;;4999788;28;20496;-73
2021/04/11 14:23:02;;;;;;;5.05;0.90;;;;;;;;;;5001691;28;20037;-73
2021/04/11 14:25:28;;;;;;;2.90;0.45;;;;;;;;;;4992431;28;20077;-73
2021/04/11 14:28:01;;;;;;;2.90;0.73;;;;;;;;;;5007199;28;20037;-74
2021/04/11 14:30:38;;;;;;;0.57;0.20;;;;;;;;;;5007294;28;20041;-74
2021/04/11 14:33:15;;;;;;;2.78;0.40;;;;;;;;;;5001464;28;20022;-73
2021/04/11 14:35:45;;;;;;;4.80;0.80;;;;;;;;;;5009532;28;20037;-75
2021/04/11 14:38:15;;;;;;;3.17;0.55;;;;;;;;;;5004655;28;20087;-75
2021/04/11 14:40:42;;;;;;;3.65;0.82;;;;;;;;;;4999957;28;20023;-75
2021/04/11 14:43:16;;;;;;;2.67;0.50;;;;;;;;;;5001927;28;20408;-74
2021/04/11 14:45:47;;;;;;;4.25;0.32;;;;;;;;;;4997712;28;20109;-74
2021/04/11 14:48:15;;;;;;;1.02;0.50;;;;;;;;;;5006362;28;20030;-74
2021/04/11 14:50:43;;;;;;;0.90;0.20;;;;;;;;;;5001163;28;20233;-74
2021/04/11 14:53:27;;;;;;;1.95;0.30;;;;;;;;;;4998674;28;20387;-74
2021/04/11 14:56:04;;;;;;;7.68;0.63;;;;;;;;;;4998995;28;20124;-73
2021/04/11 14:58:36;;;;;;;4.53;0.38;;;;;;;;;;4994345;28;20023;-73
2021/04/11 15:01:11;;;;;;;4.60;0.65;;;;;;;;;;5006245;28;20117;-73
2021/04/11 15:03:56;;;;;;;3.35;0.60;;;;;;;;;;5004721;28;20029;-73
2021/04/11 15:06:22;;;;;;;5.47;0.75;;;;;;;;;;5011948;28;20096;-74
2021/04/11 15:09:07;;;;;;;1.90;0.30;;;;;;;;;;5001157;28;20038;-73
2021/04/11 15:11:32;;;;;;;3.20;0.40;;;;;;;;;;5004806;28;20037;-73
2021/04/11 15:14:17;;;;;;;4.55;0.50;;;;;;;;;;4995809;28;20035;-73
2021/04/11 15:16:49;;;;;;;3.22;0.50;;;;;;;;;;5016007;28;20090;-73